createdAt,value
2022-08-28T00:00:36.289Z,0.00
2022-08-28T00:02:36.463Z,0.00
2022-08-28T00:03:35.397Z,0.00
2022-08-28T00:05:35.507Z,0.00
2022-08-28T00:06:35.540Z,0.00
2022-08-28T00:07:35.632Z,0.00
2022-08-28T00:08:36.642Z,0.00
2022-08-28T00:09:35.704Z,0.00
2022-08-28T00:10:35.762Z,0.00
2022-08-28T00:11:35.809Z,0.00
2022-08-28T00:12:36.818Z,0.00
2022-08-28T00:13:35.917Z,0.00
2022-08-28T00:14:36.019Z,0.00
2022-08-28T00:15:36.080Z,0.00
2022-08-28T00:16:35.326Z,0.00
2022-08-28T00:17:35.391Z,0.00
2022-08-28T00:18:35.491Z,0.00
2022-08-28T00:19:38.423Z,0.00
2022-08-28T00:20:35.547Z,0.00
2022-08-28T00:21:35.611Z,0.00
2022-08-28T00:22:35.686Z,0.00
2022-08-28T00:23:42.693Z,0.00
2022-08-28T00:25:35.642Z,0.00
2022-08-28T00:26:35.716Z,0.00
2022-08-28T00:27:35.774Z,0.00
2022-08-28T00:28:35.874Z,0.00
2022-08-28T00:29:35.952Z,0.00
2022-08-28T00:30:36.003Z,0.00
2022-08-28T00:31:35.120Z,0.00
2022-08-28T00:32:35.093Z,0.00
2022-08-28T00:34:35.409Z,0.00
2022-08-28T00:35:35.279Z,0.00
2022-08-28T00:36:35.352Z,0.00
2022-08-28T00:37:35.422Z,0.00
2022-08-28T00:38:35.491Z,0.00
2022-08-28T00:39:35.601Z,0.00
2022-08-28T00:40:35.663Z,0.00
2022-08-28T00:42:36.364Z,0.00
2022-08-28T00:43:35.738Z,0.00
2022-08-28T00:44:35.775Z,0.00
2022-08-28T00:45:39.587Z,0.00
2022-08-28T00:46:34.854Z,0.00
2022-08-28T00:47:34.862Z,0.00
2022-08-28T00:48:34.940Z,0.00
2022-08-28T00:50:35.108Z,0.00
2022-08-28T00:51:35.136Z,0.00
2022-08-28T00:52:36.131Z,0.00
2022-08-28T00:53:35.230Z,0.00
2022-08-28T00:54:35.337Z,0.00
2022-08-28T00:55:35.429Z,0.00
2022-08-28T00:56:35.426Z,0.00
2022-08-28T00:57:35.500Z,0.00
2022-08-28T00:58:35.550Z,0.00
2022-08-28T00:59:35.608Z,0.00
2022-08-28T01:00:34.653Z,0.00
2022-08-28T01:01:34.783Z,0.00
2022-08-28T01:02:34.753Z,0.00
2022-08-28T01:03:34.798Z,0.00
2022-08-28T01:04:34.864Z,0.00
2022-08-28T01:06:34.641Z,0.00
2022-08-28T01:07:34.735Z,0.00
2022-08-28T01:08:34.750Z,0.00
2022-08-28T01:09:34.788Z,0.00
2022-08-28T01:10:34.875Z,0.00
2022-08-28T01:11:34.910Z,0.00
2022-08-28T01:12:34.980Z,0.00
2022-08-28T01:13:35.036Z,0.00
2022-08-28T01:14:35.094Z,0.00
2022-08-28T01:15:35.263Z,0.00
2022-08-28T01:17:35.375Z,0.00
2022-08-28T01:18:34.404Z,0.00
2022-08-28T01:19:34.490Z,0.00
2022-08-28T01:21:34.647Z,0.00
2022-08-28T01:22:34.699Z,0.00
2022-08-28T01:23:34.796Z,0.00
2022-08-28T01:24:34.851Z,0.00
2022-08-28T01:25:34.883Z,0.00
2022-08-28T01:26:34.943Z,0.00
2022-08-28T01:27:35.034Z,0.00
2022-08-28T01:28:35.072Z,0.00
2022-08-28T01:29:35.142Z,0.00
2022-08-28T01:30:35.213Z,0.00
2022-08-28T01:31:34.276Z,0.00
2022-08-28T01:32:34.266Z,0.00
2022-08-28T01:33:34.321Z,0.00
2022-08-28T01:34:34.302Z,0.00
2022-08-28T01:35:34.357Z,0.00
2022-08-28T01:36:34.407Z,0.00
2022-08-28T01:37:34.474Z,0.00
2022-08-28T01:38:34.510Z,0.00
2022-08-28T01:40:34.789Z,0.00
2022-08-28T01:41:34.721Z,0.00
2022-08-28T01:42:34.803Z,0.00
2022-08-28T01:43:34.842Z,0.00
2022-08-28T01:44:34.924Z,0.00
2022-08-28T01:45:34.986Z,0.00
2022-08-28T01:46:34.052Z,0.00
2022-08-28T01:49:34.268Z,0.00
2022-08-28T01:50:34.366Z,0.00
2022-08-28T01:51:38.041Z,0.00
2022-08-28T01:52:34.532Z,0.00
2022-08-28T01:53:34.579Z,0.00
2022-08-28T01:54:34.638Z,0.00
2022-08-28T01:55:34.728Z,0.00
2022-08-28T01:56:34.798Z,0.00
2022-08-28T01:57:34.878Z,0.00
2022-08-28T01:59:34.020Z,0.00
2022-08-28T02:00:34.114Z,0.00
2022-08-28T02:01:34.287Z,0.00
2022-08-28T02:02:34.254Z,0.00
2022-08-28T02:03:34.341Z,0.00
2022-08-28T02:04:34.413Z,0.00
2022-08-28T02:05:34.461Z,0.00
2022-08-28T02:06:34.566Z,0.00
2022-08-28T02:07:34.597Z,0.00
2022-08-28T02:08:34.674Z,0.00
2022-08-28T02:10:33.789Z,0.00
2022-08-28T02:11:33.859Z,0.00
2022-08-28T02:12:33.946Z,0.00
2022-08-28T02:13:34.022Z,0.00
2022-08-28T02:15:34.176Z,0.00
2022-08-28T02:16:34.266Z,0.00
2022-08-28T02:18:34.424Z,0.00
2022-08-28T02:19:34.510Z,0.00
2022-08-28T02:20:33.580Z,0.00
2022-08-28T02:21:33.776Z,0.00
2022-08-28T02:23:34.871Z,0.00
2022-08-28T02:24:33.944Z,0.00
2022-08-28T02:25:33.956Z,0.00
2022-08-28T02:26:34.014Z,0.00
2022-08-28T02:27:34.084Z,0.00
2022-08-28T02:28:34.223Z,0.00
2022-08-28T02:29:34.206Z,0.00
2022-08-28T02:30:34.316Z,0.00
2022-08-28T02:31:34.346Z,0.00
2022-08-28T02:32:33.516Z,0.00
2022-08-28T02:33:33.562Z,0.00
2022-08-28T02:35:33.728Z,0.00
2022-08-28T02:37:33.817Z,0.00
2022-08-28T02:38:33.889Z,0.00
2022-08-28T02:39:33.968Z,0.00
2022-08-28T02:41:34.092Z,0.00
2022-08-28T02:42:34.185Z,0.00
2022-08-28T02:43:34.241Z,0.00
2022-08-28T02:44:33.301Z,0.00
2022-08-28T02:45:33.502Z,0.00
2022-08-28T02:46:33.547Z,0.00
2022-08-28T02:47:33.524Z,0.00
2022-08-28T02:48:33.574Z,0.00
2022-08-28T02:49:36.139Z,0.00
2022-08-28T02:50:33.726Z,0.00
2022-08-28T02:51:33.793Z,0.00
2022-08-28T02:53:33.934Z,0.00
2022-08-28T02:54:34.026Z,0.00
2022-08-28T02:55:34.366Z,0.00
2022-08-28T02:56:33.134Z,0.00
2022-08-28T02:57:33.196Z,0.00
2022-08-28T02:58:33.268Z,0.00
2022-08-28T02:59:33.358Z,0.00
2022-08-28T03:00:33.438Z,0.00
2022-08-28T03:01:33.893Z,0.00
2022-08-28T03:02:33.666Z,0.00
2022-08-28T03:03:33.621Z,0.00
2022-08-28T03:04:33.680Z,0.00
2022-08-28T03:05:33.762Z,0.00
2022-08-28T03:06:33.825Z,0.00
2022-08-28T03:07:33.914Z,0.00
2022-08-28T03:08:33.951Z,0.00
2022-08-28T03:09:33.013Z,0.00
2022-08-28T03:10:33.090Z,0.00
2022-08-28T03:11:33.171Z,0.00
2022-08-28T03:12:33.284Z,0.00
2022-08-28T03:13:33.336Z,0.00
2022-08-28T03:15:33.482Z,0.00
2022-08-28T03:16:33.596Z,0.00
2022-08-28T03:17:33.636Z,0.00
2022-08-28T03:18:33.695Z,0.00
2022-08-28T03:19:33.780Z,0.00
2022-08-28T03:21:34.600Z,0.00
2022-08-28T03:22:33.755Z,0.00
2022-08-28T03:23:32.802Z,0.00
2022-08-28T03:24:32.882Z,0.00
2022-08-28T03:26:33.090Z,0.00
2022-08-28T03:27:33.115Z,0.00
2022-08-28T03:28:33.241Z,0.00
2022-08-28T03:29:33.281Z,0.00
2022-08-28T03:30:33.395Z,0.00
2022-08-28T03:31:33.451Z,0.00
2022-08-28T03:32:33.540Z,0.00
2022-08-28T03:33:33.642Z,0.00
2022-08-28T03:34:32.664Z,0.00
2022-08-28T03:35:32.715Z,0.00
2022-08-28T03:36:32.810Z,0.00
2022-08-28T03:37:32.863Z,0.00
2022-08-28T03:38:32.936Z,0.00
2022-08-28T03:39:33.041Z,0.00
2022-08-28T03:40:32.673Z,0.00
2022-08-28T03:41:32.719Z,0.00
2022-08-28T03:42:32.773Z,0.00
2022-08-28T03:43:32.814Z,0.00
2022-08-28T03:44:32.859Z,0.00
2022-08-28T03:45:32.983Z,0.00
2022-08-28T03:46:32.560Z,0.00
2022-08-28T03:47:32.566Z,0.00
2022-08-28T03:48:32.654Z,0.00
2022-08-28T03:49:32.764Z,0.00
2022-08-28T03:50:32.856Z,0.00
2022-08-28T03:51:33.098Z,0.00
2022-08-28T03:52:33.077Z,0.00
2022-08-28T03:53:33.177Z,0.00
2022-08-28T03:54:33.285Z,0.00
2022-08-28T03:55:32.346Z,0.00
2022-08-28T03:56:32.459Z,0.00
2022-08-28T03:57:32.730Z,0.01
2022-08-28T03:58:32.656Z,0.01
2022-08-28T03:59:33.618Z,0.01
2022-08-28T04:00:32.819Z,0.01
2022-08-28T04:01:32.939Z,0.03
2022-08-28T04:02:32.950Z,0.03
2022-08-28T04:03:33.077Z,0.02
2022-08-28T04:04:33.078Z,0.03
2022-08-28T04:05:33.160Z,0.14
2022-08-28T04:06:32.206Z,0.17
2022-08-28T04:07:32.249Z,0.19
2022-08-28T04:08:32.325Z,0.15
2022-08-28T04:09:32.338Z,0.07
2022-08-28T04:10:32.412Z,0.20
2022-08-28T04:11:34.545Z,0.16
2022-08-28T04:12:35.449Z,0.32
2022-08-28T04:13:33.685Z,0.31
2022-08-28T04:14:32.697Z,0.32
2022-08-28T04:15:32.779Z,0.41
2022-08-28T04:16:32.909Z,0.43
2022-08-28T04:17:32.934Z,0.58
2022-08-28T04:18:33.049Z,0.49
2022-08-28T04:19:33.201Z,0.62
2022-08-28T04:20:34.323Z,0.61
2022-08-28T04:21:53.107Z,0.81
2022-08-28T04:22:33.521Z,0.99
2022-08-28T04:23:32.604Z,1.06
2022-08-28T04:24:32.710Z,1.24
2022-08-28T04:25:32.844Z,1.63
2022-08-28T04:26:32.893Z,1.76
2022-08-28T04:27:31.983Z,1.69
2022-08-28T04:28:32.064Z,2.33
2022-08-28T04:29:32.165Z,2.82
2022-08-28T04:30:32.301Z,3.26
2022-08-28T04:31:32.900Z,3.84
2022-08-28T04:32:32.531Z,4.36
2022-08-28T04:33:32.645Z,5.03
2022-08-28T04:34:32.743Z,5.90
2022-08-28T04:35:31.825Z,6.45
2022-08-28T04:36:31.923Z,7.43
2022-08-28T04:37:32.086Z,8.19
2022-08-28T04:38:32.201Z,9.21
2022-08-28T04:39:32.319Z,10.15
2022-08-28T04:40:32.437Z,11.24
2022-08-28T04:41:32.498Z,12.45
2022-08-28T04:42:32.595Z,14.01
2022-08-28T04:43:32.636Z,15.00
2022-08-28T04:44:31.675Z,16.31
2022-08-28T04:45:31.835Z,17.64
2022-08-28T04:46:31.851Z,18.93
2022-08-28T04:47:31.917Z,20.21
2022-08-28T04:48:32.177Z,21.11
2022-08-28T04:49:32.072Z,21.95
2022-08-28T04:50:32.148Z,22.62
2022-08-28T04:51:32.217Z,23.43
2022-08-28T04:52:33.257Z,24.40
2022-08-28T04:53:32.617Z,25.32
2022-08-28T04:54:32.457Z,25.71
2022-08-28T04:55:53.814Z,27.87
2022-08-28T04:56:32.577Z,29.57
2022-08-28T04:57:36.103Z,31.34
2022-08-28T04:58:31.728Z,32.43
2022-08-28T04:59:31.834Z,33.57
2022-08-28T05:00:31.871Z,34.34
2022-08-28T05:01:32.047Z,35.39
2022-08-28T05:02:32.146Z,36.42
2022-08-28T05:03:32.136Z,37.38
2022-08-28T05:04:32.229Z,38.91
2022-08-28T05:05:32.327Z,40.00
2022-08-28T05:06:32.419Z,40.93
2022-08-28T05:07:31.480Z,41.75
2022-08-28T05:08:31.569Z,42.16
2022-08-28T05:09:31.651Z,41.49
2022-08-28T05:10:31.770Z,44.03
2022-08-28T05:11:34.156Z,45.36
2022-08-28T05:12:31.881Z,47.07
2022-08-28T05:13:31.975Z,48.66
2022-08-28T05:14:32.051Z,49.85
2022-08-28T05:15:32.140Z,52.22
2022-08-28T05:16:32.285Z,53.38
2022-08-28T05:17:32.282Z,54.76
2022-08-28T05:18:31.301Z,56.25
2022-08-28T05:19:31.371Z,57.82
2022-08-28T05:20:31.423Z,59.95
2022-08-28T05:21:32.494Z,62.06
2022-08-28T05:22:31.565Z,63.84
2022-08-28T05:23:31.651Z,66.07
2022-08-28T05:24:31.765Z,67.43
2022-08-28T05:25:31.837Z,68.47
2022-08-28T05:26:31.986Z,68.78
2022-08-28T05:27:32.046Z,69.49
2022-08-28T05:28:32.118Z,70.25
2022-08-28T05:29:31.133Z,71.64
2022-08-28T05:30:31.223Z,72.75
2022-08-28T05:31:31.339Z,74.18
2022-08-28T05:32:31.385Z,75.48
2022-08-28T05:33:31.533Z,77.35
2022-08-28T05:34:31.558Z,79.90
2022-08-28T05:35:31.641Z,82.43
2022-08-28T05:36:32.765Z,85.39
2022-08-28T05:37:31.829Z,88.37
2022-08-28T05:38:31.908Z,91.58
2022-08-28T05:39:30.980Z,94.87
2022-08-28T05:40:31.104Z,98.51
2022-08-28T05:41:31.145Z,102.50
2022-08-28T05:42:33.114Z,106.23
2022-08-28T05:43:31.292Z,110.28
2022-08-28T05:44:32.515Z,114.03
2022-08-28T05:45:31.475Z,117.83
2022-08-28T05:46:31.524Z,121.38
2022-08-28T05:47:31.618Z,125.13
2022-08-28T05:48:32.857Z,128.93
2022-08-28T05:49:31.786Z,132.82
2022-08-28T05:50:30.856Z,136.69
2022-08-28T05:51:30.939Z,140.59
2022-08-28T05:52:31.004Z,144.13
2022-08-28T05:53:31.093Z,148.22
2022-08-28T05:54:31.149Z,151.78
2022-08-28T05:55:31.240Z,155.73
2022-08-28T05:56:31.313Z,162.68
2022-08-28T05:57:31.377Z,166.67
2022-08-28T05:58:31.444Z,170.78
2022-08-28T05:59:31.541Z,175.08
2022-08-28T06:00:31.628Z,179.55
2022-08-28T06:01:31.745Z,184.33
2022-08-28T06:02:30.723Z,189.42
2022-08-28T06:03:30.789Z,194.91
2022-08-28T06:04:30.921Z,200.25
2022-08-28T06:05:30.951Z,205.74
2022-08-28T06:06:31.031Z,210.94
2022-08-28T06:07:31.091Z,216.15
2022-08-28T06:08:31.187Z,221.00
2022-08-28T06:09:31.269Z,225.67
2022-08-28T06:10:32.353Z,229.59
2022-08-28T06:11:31.467Z,233.42
2022-08-28T06:12:31.535Z,237.39
2022-08-28T06:13:30.543Z,241.68
2022-08-28T06:14:30.592Z,246.25
2022-08-28T06:15:30.663Z,252.05
2022-08-28T06:16:30.771Z,258.21
2022-08-28T06:17:30.909Z,265.31
2022-08-28T06:18:30.871Z,273.40
2022-08-28T06:19:30.984Z,283.79
2022-08-28T06:20:31.011Z,294.86
2022-08-28T06:21:31.076Z,315.36
2022-08-28T06:22:31.141Z,304.44
2022-08-28T06:23:31.343Z,310.57
2022-08-28T06:24:31.289Z,319.25
2022-08-28T06:25:31.352Z,325.16
2022-08-28T06:26:30.370Z,327.33
2022-08-28T06:27:30.466Z,331.41
2022-08-28T06:28:30.555Z,335.97
2022-08-28T06:29:30.598Z,340.27
2022-08-28T06:30:30.672Z,346.44
2022-08-28T06:31:33.402Z,369.87
2022-08-28T06:32:30.884Z,385.65
2022-08-28T06:33:30.905Z,442.65
2022-08-28T06:34:30.980Z,409.93
2022-08-28T06:35:31.061Z,383.00
2022-08-28T06:36:31.117Z,382.21
2022-08-28T06:37:31.195Z,389.53
2022-08-28T06:38:30.230Z,402.70
2022-08-28T06:39:31.332Z,416.44
2022-08-28T06:40:30.427Z,426.46
2022-08-28T06:41:30.471Z,440.57
2022-08-28T06:42:30.533Z,448.09
2022-08-28T06:43:30.653Z,437.02
2022-08-28T06:44:30.707Z,502.58
2022-08-28T06:45:30.821Z,508.43
2022-08-28T06:46:30.874Z,467.50
2022-08-28T06:47:30.932Z,530.59
2022-08-28T06:48:31.417Z,549.00
2022-08-28T06:49:31.085Z,557.86
2022-08-28T06:50:30.088Z,528.68
2022-08-28T06:51:30.135Z,613.44
2022-08-28T06:52:31.244Z,564.56
2022-08-28T06:53:30.275Z,519.38
2022-08-28T06:54:30.381Z,574.14
2022-08-28T06:55:30.409Z,556.47
2022-08-28T06:56:30.470Z,557.71
2022-08-28T06:57:30.538Z,519.05
2022-08-28T06:58:30.621Z,523.32
2022-08-28T06:59:30.697Z,529.57
2022-08-28T07:00:30.760Z,593.76
2022-08-28T07:01:30.868Z,668.86
2022-08-28T07:02:30.907Z,703.31
2022-08-28T07:03:29.874Z,613.25
2022-08-28T07:04:29.925Z,644.41
2022-08-28T07:05:30.004Z,732.52
2022-08-28T07:06:30.018Z,600.32
2022-08-28T07:07:32.421Z,713.44
2022-08-28T07:08:30.142Z,737.83
2022-08-28T07:09:30.191Z,710.63
2022-08-28T07:10:30.238Z,664.29
2022-08-28T07:11:30.308Z,727.28
2022-08-28T07:12:30.349Z,752.65
2022-08-28T07:13:33.795Z,756.68
2022-08-28T07:14:30.448Z,717.01
2022-08-28T07:15:30.525Z,754.57
2022-08-28T07:16:30.611Z,766.58
2022-08-28T07:17:30.601Z,723.77
2022-08-28T07:18:30.690Z,695.55
2022-08-28T07:19:29.713Z,741.50
2022-08-28T07:20:29.773Z,759.57
2022-08-28T07:21:29.840Z,751.80
2022-08-28T07:22:29.966Z,737.72
2022-08-28T07:23:29.994Z,731.38
2022-08-28T07:24:30.000Z,758.83
2022-08-28T07:25:30.079Z,751.17
2022-08-28T07:26:30.139Z,712.85
2022-08-28T07:27:30.222Z,755.99
2022-08-28T07:28:30.264Z,761.43
2022-08-28T07:29:30.331Z,767.37
2022-08-28T07:30:30.379Z,766.66
2022-08-28T07:31:30.517Z,772.14
2022-08-28T07:32:30.491Z,785.88
2022-08-28T07:33:29.515Z,787.94
2022-08-28T07:34:29.593Z,784.57
2022-08-28T07:35:30.580Z,800.16
2022-08-28T07:36:30.174Z,797.71
2022-08-28T07:37:29.783Z,777.13
2022-08-28T07:38:29.844Z,788.02
2022-08-28T07:39:29.858Z,797.56
2022-08-28T07:40:30.002Z,802.51
2022-08-28T07:41:29.987Z,809.10
2022-08-28T07:42:32.852Z,806.98
2022-08-28T07:43:31.127Z,811.41
2022-08-28T07:44:30.126Z,823.16
2022-08-28T07:45:30.230Z,826.50
2022-08-28T07:46:30.212Z,832.31
2022-08-28T07:47:30.280Z,834.93
2022-08-28T07:48:29.289Z,836.89
2022-08-28T07:49:29.387Z,833.08
2022-08-28T07:50:29.416Z,837.99
2022-08-28T07:51:29.466Z,847.14
2022-08-28T07:52:29.547Z,849.99
2022-08-28T07:53:33.225Z,852.62
2022-08-28T07:54:30.676Z,850.50
2022-08-28T07:55:29.725Z,852.71
2022-08-28T07:56:29.788Z,856.01
2022-08-28T07:57:29.839Z,857.04
2022-08-28T07:58:29.894Z,857.19
2022-08-28T07:59:36.561Z,858.10
2022-08-28T08:00:31.220Z,864.13
2022-08-28T08:01:30.689Z,869.54
2022-08-28T08:02:30.176Z,872.37
2022-08-28T08:03:29.278Z,872.22
2022-08-28T08:04:29.276Z,873.24
2022-08-28T08:05:29.345Z,879.32
2022-08-28T08:06:31.022Z,881.42
2022-08-28T08:07:30.460Z,881.32
2022-08-28T08:08:30.554Z,885.57
2022-08-28T08:09:29.586Z,885.63
2022-08-28T08:10:33.934Z,888.01
2022-08-28T08:11:32.342Z,893.73
2022-08-28T08:12:29.753Z,900.26
2022-08-28T08:13:29.801Z,902.12
2022-08-28T08:14:29.850Z,901.05
2022-08-28T08:15:31.429Z,904.49
2022-08-28T08:16:28.945Z,904.40
2022-08-28T08:17:29.039Z,891.26
2022-08-28T08:18:29.089Z,897.38
2022-08-28T08:19:29.145Z,914.74
2022-08-28T08:20:29.203Z,922.96
2022-08-28T08:21:30.400Z,930.17
2022-08-28T08:22:29.376Z,939.49
2022-08-28T08:23:29.432Z,945.54
2022-08-28T08:24:29.511Z,949.02
2022-08-28T08:25:30.497Z,941.33
2022-08-28T08:26:29.612Z,949.09
2022-08-28T08:27:29.855Z,963.20
2022-08-28T08:28:29.737Z,920.59
2022-08-28T08:29:28.768Z,900.90
2022-08-28T08:30:28.831Z,968.87
2022-08-28T08:31:30.010Z,980.88
2022-08-28T08:32:28.939Z,987.02
2022-08-28T08:33:29.205Z,1015.96
2022-08-28T08:34:29.035Z,1018.76
2022-08-28T08:35:29.086Z,1018.96
2022-08-28T08:36:29.165Z,1014.24
2022-08-28T08:37:29.217Z,1017.93
2022-08-28T08:38:29.304Z,1017.92
2022-08-28T08:39:29.322Z,1021.59
2022-08-28T08:40:29.421Z,1023.42
2022-08-28T08:41:29.511Z,1035.93
2022-08-28T08:42:29.596Z,1044.87
2022-08-28T08:43:29.566Z,1049.43
2022-08-28T08:44:33.928Z,1052.69
2022-08-28T08:45:29.621Z,1063.43
2022-08-28T08:46:28.757Z,1078.85
2022-08-28T08:47:28.772Z,1097.81
2022-08-28T08:48:28.811Z,1102.57
2022-08-28T08:49:28.896Z,1116.02
2022-08-28T08:50:28.909Z,1115.48
2022-08-28T08:51:28.996Z,1125.71
2022-08-28T08:52:29.051Z,1128.39
2022-08-28T08:53:29.065Z,1130.11
2022-08-28T08:54:29.672Z,1133.35
2022-08-28T08:55:29.193Z,1128.68
2022-08-28T08:56:34.989Z,1132.45
2022-08-28T08:57:30.292Z,1132.55
2022-08-28T08:58:29.352Z,1147.97
2022-08-28T08:59:29.398Z,1155.38
2022-08-28T09:00:28.437Z,1114.98
2022-08-28T09:01:28.499Z,1181.69
2022-08-28T09:02:31.694Z,932.22
2022-08-28T09:03:28.546Z,958.02
2022-08-28T09:04:28.602Z,977.39
2022-08-28T09:05:28.683Z,945.50
2022-08-28T09:06:28.741Z,1183.01
2022-08-28T09:07:28.778Z,1174.33
2022-08-28T09:08:28.852Z,1177.75
2022-08-28T09:09:28.859Z,1189.85
2022-08-28T09:10:28.906Z,1159.87
2022-08-28T09:11:28.935Z,1204.58
2022-08-28T09:12:28.931Z,1220.89
2022-08-28T09:13:28.963Z,865.78
2022-08-28T09:14:29.446Z,815.93
2022-08-28T09:15:29.078Z,1190.95
2022-08-28T09:16:29.090Z,1261.32
2022-08-28T09:17:28.112Z,1263.97
2022-08-28T09:18:28.204Z,1271.64
2022-08-28T09:19:28.252Z,1271.54
2022-08-28T09:20:32.685Z,1300.03
2022-08-28T09:21:29.719Z,1310.54
2022-08-28T09:22:28.382Z,1318.68
2022-08-28T09:23:29.925Z,1325.83
2022-08-28T09:24:28.502Z,1316.59
2022-08-28T09:25:28.552Z,932.85
2022-08-28T09:26:28.599Z,988.06
2022-08-28T09:27:28.664Z,995.67
2022-08-28T09:28:28.704Z,899.80
2022-08-28T09:29:28.732Z,1251.33
2022-08-28T09:30:28.784Z,893.72
2022-08-28T09:31:28.947Z,893.16
2022-08-28T09:32:28.875Z,1251.08
2022-08-28T09:33:28.918Z,1244.03
2022-08-28T09:34:27.924Z,1240.50
2022-08-28T09:35:27.980Z,1237.33
2022-08-28T09:36:28.040Z,1232.42
2022-08-28T09:37:28.082Z,1235.62
2022-08-28T09:38:28.211Z,1232.00
2022-08-28T09:39:28.187Z,1229.99
2022-08-28T09:40:28.229Z,1227.25
2022-08-28T09:41:28.231Z,1229.54
2022-08-28T09:42:28.254Z,1225.02
2022-08-28T09:43:28.302Z,1228.43
2022-08-28T09:44:28.386Z,1228.27
2022-08-28T09:45:28.376Z,1225.02
2022-08-28T09:46:28.472Z,1222.36
2022-08-28T09:47:28.479Z,1228.05
2022-08-28T09:48:28.548Z,1224.45
2022-08-28T09:49:28.570Z,1236.06
2022-08-28T09:50:28.616Z,1218.88
2022-08-28T09:51:29.288Z,1235.57
2022-08-28T09:52:28.749Z,1234.76
2022-08-28T09:53:27.718Z,1239.11
2022-08-28T09:54:27.797Z,1058.73
2022-08-28T09:55:27.822Z,1219.82
2022-08-28T09:56:27.834Z,1216.39
2022-08-28T09:57:27.899Z,1207.28
2022-08-28T09:58:27.916Z,1215.82
2022-08-28T09:59:27.958Z,1211.45
2022-08-28T10:00:28.032Z,1209.01
2022-08-28T10:01:28.059Z,1204.11
2022-08-28T10:02:28.018Z,1201.63
2022-08-28T10:03:28.105Z,1205.05
2022-08-28T10:04:28.169Z,1204.73
2022-08-28T10:05:28.168Z,1199.60
2022-08-28T10:06:28.210Z,1204.67
2022-08-28T10:07:28.261Z,1202.06
2022-08-28T10:08:30.235Z,1199.25
2022-08-28T10:09:28.389Z,1194.95
2022-08-28T10:10:28.354Z,1194.51
2022-08-28T10:11:28.559Z,1194.61
2022-08-28T10:12:28.413Z,1182.61
2022-08-28T10:13:27.397Z,1186.00
2022-08-28T10:14:27.443Z,1187.44
2022-08-28T10:15:27.846Z,1188.43
2022-08-28T10:16:27.566Z,1189.31
2022-08-28T10:17:27.567Z,1190.51
2022-08-28T10:18:27.639Z,1193.51
2022-08-28T10:19:27.625Z,1186.94
2022-08-28T10:20:27.663Z,1183.37
2022-08-28T10:21:27.829Z,1183.60
2022-08-28T10:22:27.725Z,1184.27
2022-08-28T10:23:27.778Z,1180.88
2022-08-28T10:24:29.229Z,1183.03
2022-08-28T10:25:27.879Z,1188.12
2022-08-28T10:26:27.945Z,1191.81
2022-08-28T10:27:27.966Z,1194.98
2022-08-28T10:28:28.019Z,1189.03
2022-08-28T10:29:28.018Z,1188.14
2022-08-28T10:30:28.062Z,1185.78
2022-08-28T10:31:28.169Z,1189.03
2022-08-28T10:32:28.147Z,1188.29
2022-08-28T10:33:28.177Z,1197.37
2022-08-28T10:34:27.170Z,1192.82
2022-08-28T10:35:27.179Z,1195.51
2022-08-28T10:36:33.937Z,1198.94
2022-08-28T10:37:28.273Z,1197.14
2022-08-28T10:38:27.277Z,1198.82
2022-08-28T10:39:27.318Z,1193.01
2022-08-28T10:40:28.436Z,1189.93
2022-08-28T10:41:27.398Z,1190.43
2022-08-28T10:42:27.828Z,1194.05
2022-08-28T10:43:28.488Z,1190.60
2022-08-28T10:44:27.502Z,1190.92
2022-08-28T10:45:27.512Z,1198.39
2022-08-28T10:46:27.632Z,1199.81
2022-08-28T10:47:27.615Z,1196.30
2022-08-28T10:48:27.653Z,1191.90
2022-08-28T10:49:27.693Z,1195.97
2022-08-28T10:50:27.822Z,1194.98
2022-08-28T10:51:30.151Z,1187.15
2022-08-28T10:52:28.758Z,1191.75
2022-08-28T10:53:27.789Z,1198.27
2022-08-28T10:54:27.814Z,1194.36
2022-08-28T10:55:27.874Z,1197.74
2022-08-28T10:56:26.838Z,1196.52
2022-08-28T10:57:26.879Z,1198.45
2022-08-28T10:58:27.877Z,1199.77
2022-08-28T10:59:26.865Z,1195.20
2022-08-28T11:00:26.918Z,1195.34
2022-08-28T11:01:26.949Z,1193.47
2022-08-28T11:02:26.989Z,1192.43
2022-08-28T11:03:35.321Z,1192.17
2022-08-28T11:04:27.939Z,1199.57
2022-08-28T11:05:27.046Z,1205.56
2022-08-28T11:06:27.006Z,1205.09
2022-08-28T11:07:27.006Z,1204.35
2022-08-28T11:08:27.034Z,1209.63
2022-08-28T11:09:27.057Z,1216.27
2022-08-28T11:10:27.093Z,1221.63
2022-08-28T11:11:27.127Z,1227.01
2022-08-28T11:12:27.142Z,1224.91
2022-08-28T11:13:27.145Z,1230.85
2022-08-28T11:14:27.154Z,1230.89
2022-08-28T11:15:34.228Z,1236.71
2022-08-28T11:16:28.328Z,1240.34
2022-08-28T11:17:27.216Z,1242.39
2022-08-28T11:18:27.221Z,1250.45
2022-08-28T11:19:27.250Z,1254.52
2022-08-28T11:20:27.248Z,1253.25
2022-08-28T11:21:27.458Z,1276.46
2022-08-28T11:22:27.377Z,1277.22
2022-08-28T11:23:27.301Z,1278.45
2022-08-28T11:24:27.304Z,1283.10
2022-08-28T11:25:32.332Z,1273.44
2022-08-28T11:26:28.387Z,1286.11
2022-08-28T11:27:27.388Z,1299.97
2022-08-28T11:28:27.406Z,1302.65
2022-08-28T11:29:27.431Z,1296.18
2022-08-28T11:30:26.512Z,1309.41
2022-08-28T11:31:28.969Z,1305.01
2022-08-28T11:32:26.480Z,1308.92
2022-08-28T11:33:26.482Z,1299.84
2022-08-28T11:34:26.530Z,1311.63
2022-08-28T11:35:26.569Z,1319.63
2022-08-28T11:36:26.559Z,1314.61
2022-08-28T11:37:27.544Z,1315.85
2022-08-28T11:38:26.645Z,1316.49
2022-08-28T11:39:27.701Z,1312.95
2022-08-28T11:40:26.757Z,1316.89
2022-08-28T11:41:26.721Z,1310.48
2022-08-28T11:42:26.753Z,1309.82
2022-08-28T11:43:26.782Z,1310.22
2022-08-28T11:44:26.805Z,1298.95
2022-08-28T11:45:26.826Z,1302.77
2022-08-28T11:46:26.874Z,1309.14
2022-08-28T11:47:26.854Z,1310.28
2022-08-28T11:48:26.884Z,1322.67
2022-08-28T11:49:26.893Z,1325.23
2022-08-28T11:50:26.930Z,1330.85
2022-08-28T11:51:26.957Z,1337.12
2022-08-28T11:52:26.989Z,1329.10
2022-08-28T11:53:26.978Z,1332.35
2022-08-28T11:54:27.021Z,1364.20
2022-08-28T11:55:27.087Z,1356.08
2022-08-28T11:56:30.565Z,1359.12
2022-08-28T11:57:27.084Z,1351.93
2022-08-28T11:58:26.096Z,1351.92
2022-08-28T11:59:26.082Z,1360.45
2022-08-28T12:00:27.099Z,1372.01
2022-08-28T12:01:27.044Z,1353.09
2022-08-28T12:02:26.134Z,1380.73
2022-08-28T12:03:27.084Z,1361.39
2022-08-28T12:04:26.156Z,1383.87
2022-08-28T12:05:26.134Z,1422.27
2022-08-28T12:06:26.186Z,1406.77
2022-08-28T12:07:26.188Z,1440.51
2022-08-28T12:08:28.169Z,1422.89
2022-08-28T12:09:26.224Z,1422.51
2022-08-28T12:10:27.734Z,1438.22
2022-08-28T12:11:26.289Z,1437.66
2022-08-28T12:12:26.293Z,1461.55
2022-08-28T12:13:26.297Z,1434.68
2022-08-28T12:14:26.320Z,1445.40
2022-08-28T12:15:26.372Z,1465.41
2022-08-28T12:16:26.452Z,1466.52
2022-08-28T12:17:30.578Z,1487.34
2022-08-28T12:18:27.449Z,1484.59
2022-08-28T12:19:26.419Z,1483.46
2022-08-28T12:20:27.370Z,1504.88
2022-08-28T12:21:27.295Z,1507.16
2022-08-28T12:22:26.517Z,1492.14
2022-08-28T12:23:26.563Z,1510.53
2022-08-28T12:24:27.504Z,1510.38
2022-08-28T12:25:26.536Z,1523.59
2022-08-28T12:26:26.556Z,1525.52
2022-08-28T12:27:27.573Z,1539.63
2022-08-28T12:28:26.593Z,1544.75
2022-08-28T12:29:27.364Z,1565.64
2022-08-28T12:30:26.680Z,1558.02
2022-08-28T12:31:25.634Z,1553.69
2022-08-28T12:32:25.652Z,1560.38
2022-08-28T12:33:25.699Z,1567.43
2022-08-28T12:34:25.684Z,1577.30
2022-08-28T12:35:25.724Z,1582.85
2022-08-28T12:36:26.675Z,1573.87
2022-08-28T12:37:25.747Z,1582.37
2022-08-28T12:38:25.803Z,1589.20
2022-08-28T12:39:25.765Z,1597.80
2022-08-28T12:40:25.813Z,1602.78
2022-08-28T12:41:25.760Z,1602.96
2022-08-28T12:42:25.770Z,1621.26
2022-08-28T12:43:25.786Z,1634.33
2022-08-28T12:44:25.826Z,1629.04
2022-08-28T12:45:25.867Z,1631.07
2022-08-28T12:46:25.896Z,1652.66
2022-08-28T12:47:25.931Z,1644.76
2022-08-28T12:48:25.871Z,1649.95
2022-08-28T12:49:25.919Z,1650.23
2022-08-28T12:50:25.958Z,1656.10
2022-08-28T12:51:25.896Z,1670.49
2022-08-28T12:52:26.855Z,1678.14
2022-08-28T12:53:25.926Z,1689.45
2022-08-28T12:54:26.959Z,1680.40
2022-08-28T12:55:26.021Z,1684.53
2022-08-28T12:56:26.067Z,1691.02
2022-08-28T12:57:26.002Z,1699.84
2022-08-28T12:58:26.073Z,1704.41
2022-08-28T12:59:27.571Z,1710.22
2022-08-28T13:00:26.064Z,1715.96
2022-08-28T13:01:28.080Z,1720.63
2022-08-28T13:02:26.081Z,1740.08